<?xml version="1.0" encoding="UTF-8" standalone="no" ?>
<gpx xmlns="http://www.topografix.com/GPX/1/1" xmlns:xsi="http://www.w3.org/2001/XMLSchema-instance" xsi:schemaLocation="http://www.topografix.com/GPX/1/1 http://www.topografix.com/GPX/1/1/gpx.xsd" version="1.1" creator="VisuGPX - https://www.visugpx.com">
  <metadata>
    <name>TOTAL 4x4 </name>
  </metadata>
  <wpt lat="42.36368" lon="2.84007">
    <ele>181</ele>
  </wpt>
  <wpt lat="42.36397" lon="2.83975">
    <ele>185.2</ele>
  </wpt>
  <wpt lat="42.36387" lon="2.83877">
    <ele>193</ele>
  </wpt>
  <wpt lat="42.36443" lon="2.83943">
    <ele>186.6</ele>
  </wpt>
  <wpt lat="42.2714" lon="2.52859">
    <ele>415.7</ele>
  </wpt>
  <wpt lat="42.27123" lon="2.52776">
    <ele>417.3</ele>
  </wpt>
  <wpt lat="42.27143" lon="2.53029">
    <ele>408.8</ele>
  </wpt>
  <trk>
    <name><![CDATA[TOTAL 4x4 _23]]></name>
    <extensions>
      <line xmlns="http://www.topografix.com/GPX/gpx_style/0/2">
        <color>888800</color>
        <width>4</width>
      </line>
    </extensions>
    <trkseg>
      <trkpt lat="42.71589" lon="-1.33963">
        <ele>486.74</ele>
        <time>2021-08-05T09:10:43Z</time>
      </trkpt>
      <trkpt lat="42.71608" lon="-1.33871">
        <ele>486.2</ele>
        <time>2021-08-05T09:10:51Z</time>
      </trkpt>
      <trkpt lat="42.71645" lon="-1.33703">
        <ele>484.92</ele>
        <time>2021-08-05T09:10:59Z</time>
      </trkpt>
      <trkpt lat="42.717" lon="-1.33439">
        <ele>481.65</ele>
        <time>2021-08-05T09:11:11Z</time>
      </trkpt>
      <trkpt lat="42.71701" lon="-1.33369">
        <ele>478.43</ele>
        <time>2021-08-05T09:11:15Z</time>
      </trkpt>
      <trkpt lat="42.71675" lon="-1.33342">
        <ele>474.09</ele>
        <time>2021-08-05T09:11:19Z</time>
      </trkpt>
      <trkpt lat="42.71651" lon="-1.3335">
        <ele>472.03</ele>
        <time>2021-08-05T09:11:21Z</time>
      </trkpt>
      <trkpt lat="42.7158" lon="-1.33379">
        <ele>467.29</ele>
        <time>2021-08-05T09:11:26Z</time>
      </trkpt>
      <trkpt lat="42.71555" lon="-1.33388">
        <ele>465.24</ele>
        <time>2021-08-05T09:11:28Z</time>
      </trkpt>
      <trkpt lat="42.71512" lon="-1.33372">
        <ele>461.08</ele>
        <time>2021-08-05T09:11:32Z</time>
      </trkpt>
      <trkpt lat="42.715" lon="-1.33319">
        <ele>457.69</ele>
        <time>2021-08-05T09:11:36Z</time>
      </trkpt>
      <trkpt lat="42.71491" lon="-1.33117">
        <ele>455.39</ele>
        <time>2021-08-05T09:11:46Z</time>
      </trkpt>
      <trkpt lat="42.71489" lon="-1.33077">
        <ele>455.34</ele>
        <time>2021-08-05T09:11:48Z</time>
      </trkpt>
      <trkpt lat="42.71522" lon="-1.32926">
        <ele>455.57</ele>
        <time>2021-08-05T09:11:56Z</time>
      </trkpt>
      <trkpt lat="42.71535" lon="-1.32873">
        <ele>455.79</ele>
        <time>2021-08-05T09:11:59Z</time>
      </trkpt>
      <trkpt lat="42.7153" lon="-1.32716">
        <ele>456.7</ele>
        <time>2021-08-05T09:12:07Z</time>
      </trkpt>
      <trkpt lat="42.71548" lon="-1.32638">
        <ele>457.65</ele>
        <time>2021-08-05T09:12:12Z</time>
      </trkpt>
      <trkpt lat="42.71633" lon="-1.3248">
        <ele>461.07</ele>
        <time>2021-08-05T09:12:21Z</time>
      </trkpt>
      <trkpt lat="42.71676" lon="-1.32401">
        <ele>464.28</ele>
        <time>2021-08-05T09:12:25Z</time>
      </trkpt>
      <trkpt lat="42.717" lon="-1.32356">
        <ele>465.7</ele>
        <time>2021-08-05T09:12:28Z</time>
      </trkpt>
      <trkpt lat="42.71707" lon="-1.32333">
        <ele>466.41</ele>
        <time>2021-08-05T09:12:33Z</time>
      </trkpt>
      <trkpt lat="42.71725" lon="-1.32323">
        <ele>466.69</ele>
        <time>2021-08-05T09:12:37Z</time>
      </trkpt>
      <trkpt lat="42.71836" lon="-1.32293">
        <ele>468.81</ele>
        <time>2021-08-05T09:12:46Z</time>
      </trkpt>
      <trkpt lat="42.71921" lon="-1.3228">
        <ele>472.06</ele>
        <time>2021-08-05T09:12:51Z</time>
      </trkpt>
      <trkpt lat="42.72019" lon="-1.32277">
        <ele>475.75</ele>
        <time>2021-08-05T09:12:56Z</time>
      </trkpt>
      <trkpt lat="42.72097" lon="-1.32257">
        <ele>479.34</ele>
        <time>2021-08-05T09:13:00Z</time>
      </trkpt>
      <trkpt lat="42.72155" lon="-1.32234">
        <ele>482.63</ele>
        <time>2021-08-05T09:13:03Z</time>
      </trkpt>
      <trkpt lat="42.72217" lon="-1.32217">
        <ele>485.88</ele>
        <time>2021-08-05T09:13:06Z</time>
      </trkpt>
      <trkpt lat="42.72279" lon="-1.3221">
        <ele>489.6</ele>
        <time>2021-08-05T09:13:09Z</time>
      </trkpt>
      <trkpt lat="42.72342" lon="-1.32213">
        <ele>493.36</ele>
        <time>2021-08-05T09:13:12Z</time>
      </trkpt>
      <trkpt lat="42.72406" lon="-1.32218">
        <ele>496.94</ele>
        <time>2021-08-05T09:13:15Z</time>
      </trkpt>
      <trkpt lat="42.72469" lon="-1.32223">
        <ele>500.02</ele>
        <time>2021-08-05T09:13:18Z</time>
      </trkpt>
      <trkpt lat="42.72554" lon="-1.32229">
        <ele>503.04</ele>
        <time>2021-08-05T09:13:22Z</time>
      </trkpt>
      <trkpt lat="42.7268" lon="-1.32241">
        <ele>506.06</ele>
        <time>2021-08-05T09:13:28Z</time>
      </trkpt>
      <trkpt lat="42.72884" lon="-1.32286">
        <ele>504.46</ele>
        <time>2021-08-05T09:13:38Z</time>
      </trkpt>
      <trkpt lat="42.72947" lon="-1.32328">
        <ele>500.15</ele>
        <time>2021-08-05T09:13:42Z</time>
      </trkpt>
      <trkpt lat="42.72981" lon="-1.32383">
        <ele>496.55</ele>
        <time>2021-08-05T09:13:45Z</time>
      </trkpt>
      <trkpt lat="42.73" lon="-1.32453">
        <ele>493.07</ele>
        <time>2021-08-05T09:13:48Z</time>
      </trkpt>
      <trkpt lat="42.73" lon="-1.32529">
        <ele>489.51</ele>
        <time>2021-08-05T09:13:51Z</time>
      </trkpt>
      <trkpt lat="42.72983" lon="-1.32601">
        <ele>485.71</ele>
        <time>2021-08-05T09:13:54Z</time>
      </trkpt>
      <trkpt lat="42.72947" lon="-1.32663">
        <ele>482.09</ele>
        <time>2021-08-05T09:13:57Z</time>
      </trkpt>
      <trkpt lat="42.7289" lon="-1.32745">
        <ele>477.29</ele>
        <time>2021-08-05T09:14:01Z</time>
      </trkpt>
      <trkpt lat="42.72854" lon="-1.32848">
        <ele>472.24</ele>
        <time>2021-08-05T09:14:05Z</time>
      </trkpt>
      <trkpt lat="42.72846" lon="-1.32904">
        <ele>470.88</ele>
        <time>2021-08-05T09:14:07Z</time>
      </trkpt>
      <trkpt lat="42.7285" lon="-1.33157">
        <ele>468.94</ele>
        <time>2021-08-05T09:14:16Z</time>
      </trkpt>
      <trkpt lat="42.72893" lon="-1.33623">
        <ele>468.26</ele>
        <time>2021-08-05T09:14:32Z</time>
      </trkpt>
      <trkpt lat="42.72959" lon="-1.3377">
        <ele>468.21</ele>
        <time>2021-08-05T09:14:38Z</time>
      </trkpt>
      <trkpt lat="42.72991" lon="-1.33805">
        <ele>468.53</ele>
        <time>2021-08-05T09:14:40Z</time>
      </trkpt>
      <trkpt lat="42.73055" lon="-1.33857">
        <ele>469.68</ele>
        <time>2021-08-05T09:14:46Z</time>
      </trkpt>
    </trkseg>
  </trk>
</gpx>